This is the latest recevied weather packets stored in our database for station/object KB4NWJ. If no packets are shown the sender has not sent any weather packets the latest 1 day(s).
| Time | Temp. | Humidity | Pressure | Rain* | Wind** | Luminosity | Snow |
|---|---|---|---|---|---|---|---|
| 1778024102 | 23.33° C | 55% | 1014.5 hPa | 0 mm | 0 m/s | 39 W/m² | - |
| 1778023799 | 23.33° C | 54% | 1014.7 hPa | 0 mm | 0 m/s | 47 W/m² | - |
| 1778023497 | 23.33° C | 55% | 1014.6 hPa | 0 mm | 0 m/s | 46 W/m² | - |
| 1778023194 | 23.33° C | 55% | 1014.6 hPa | 0 mm | 0 m/s | 40 W/m² | - |
| 1778022891 | 23.33° C | 54% | 1014.7 hPa | 0 mm | 0 m/s | 41 W/m² | - |
| 1778022589 | 23.33° C | 53% | 1014.9 hPa | 0 mm | 1.34 m/s, 219° | 63 W/m² | - |
| 1778022287 | 23.33° C | 53% | 1014.7 hPa | 0 mm | 0 m/s | 55 W/m² | - |
| 1778021983 | 23.89° C | 53% | 1014.7 hPa | 0 mm | 0.45 m/s, 286° | 56 W/m² | - |
| 1778021680 | 23.89° C | 51% | 1014.4 hPa | 0 mm | 0.45 m/s, 225° | 66 W/m² | - |
| 1778021376 | 23.89° C | 50% | 1014.4 hPa | 0 mm | 0.89 m/s, 157° | 95 W/m² | - |
| 1778021073 | 23.89° C | 51% | 1014.4 hPa | 0 mm | 0 m/s | 134 W/m² | - |
| 1778020770 | 23.89° C | 50% | 1014.6 hPa | 0 mm | 0.89 m/s, 248° | 81 W/m² | - |
| 1778020467 | 23.89° C | 51% | 1014.4 hPa | 0 mm | 0.45 m/s, 296° | 119 W/m² | - |
| 1778020163 | 23.89° C | 48% | 1014.2 hPa | 0 mm | 0.45 m/s, 262° | 48 W/m² | - |
| 1778019860 | 23.89° C | 48% | 1014.2 hPa | 0 mm | 0.45 m/s, 248° | 205 W/m² | - |
| 1778019556 | 24.44° C | 47% | 1014.2 hPa | 0 mm | 1.79 m/s, 193° | 216 W/m² | - |
| 1778019253 | 24.44° C | 46% | 1014.3 hPa | 0 mm | 1.79 m/s, 150° | 252 W/m² | - |
| 1778018950 | 24.44° C | 45% | 1014.2 hPa | 0 mm | 1.34 m/s, 204° | 267 W/m² | - |
| 1778018647 | 24.44° C | 47% | 1014.3 hPa | 0 mm | 0.45 m/s, 203° | 286 W/m² | - |
| 1778018345 | 25° C | 46% | 1014.3 hPa | 0 mm | 0.89 m/s, 187° | 283 W/m² | - |
| 1778018043 | 25° C | 45% | 1014.3 hPa | 0 mm | 1.34 m/s, 242° | 271 W/m² | - |
| 1778017741 | 25.56° C | 45% | 1014.4 hPa | 0 mm | 1.34 m/s, 178° | 307 W/m² | - |
| 1778017438 | 25° C | 45% | 1014.2 hPa | 0 mm | 0 m/s | 360 W/m² | - |
| 1778017135 | 25° C | 44% | 1014.5 hPa | 0 mm | 0.45 m/s, 244° | 258 W/m² | - |
| 1778016833 | 25.56° C | 43% | 1014.5 hPa | 0 mm | 0.89 m/s, 229° | 269 W/m² | - |
* Rain latest hour (hover to see other rain measurements)
** Current wind speed in m/s (hover to see current wind gust speed)